sensor_id;sensor_type;location;lat;lon;timestamp;P1;durP1;ratioP1;P2;durP2;ratioP2
68384;SDS011;55336;43.062;25.626;2022-09-09T00:02:39;2.00;;;1.60;;
68384;SDS011;55336;43.062;25.626;2022-09-09T00:04:59;2.75;;;1.92;;
68384;SDS011;55336;43.062;25.626;2022-09-09T00:07:50;1.10;;;1.02;;
68384;SDS011;55336;43.062;25.626;2022-09-09T00:10:32;2.72;;;1.92;;
68384;SDS011;55336;43.062;25.626;2022-09-09T00:13:13;2.22;;;1.77;;
68384;SDS011;55336;43.062;25.626;2022-09-09T00:21:36;2.13;;;1.93;;
68384;SDS011;55336;43.062;25.626;2022-09-09T00:29:58;2.88;;;2.13;;
68384;SDS011;55336;43.062;25.626;2022-09-09T00:32:37;1.55;;;1.13;;
68384;SDS011;55336;43.062;25.626;2022-09-09T00:38:12;1.65;;;1.55;;
68384;SDS011;55336;43.062;25.626;2022-09-09T00:45:59;1.60;;;1.50;;
68384;SDS011;55336;43.062;25.626;2022-09-09T00:54:32;1.48;;;1.30;;
68384;SDS011;55336;43.062;25.626;2022-09-09T00:59:51;5.38;;;2.00;;
68384;SDS011;55336;43.062;25.626;2022-09-09T01:02:30;1.63;;;1.35;;
68384;SDS011;55336;43.062;25.626;2022-09-09T01:05:17;2.28;;;2.08;;
68384;SDS011;55336;43.062;25.626;2022-09-09T01:07:44;1.67;;;1.50;;
68384;SDS011;55336;43.062;25.626;2022-09-09T01:10:18;1.30;;;1.20;;
68384;SDS011;55336;43.062;25.626;2022-09-09T01:12:52;1.83;;;1.73;;
68384;SDS011;55336;43.062;25.626;2022-09-09T01:15:30;1.50;;;1.40;;
68384;SDS011;55336;43.062;25.626;2022-09-09T01:18:16;4.78;;;1.30;;
68384;SDS011;55336;43.062;25.626;2022-09-09T01:29:00;1.90;;;1.80;;
68384;SDS011;55336;43.062;25.626;2022-09-09T01:31:27;1.65;;;1.55;;
68384;SDS011;55336;43.062;25.626;2022-09-09T01:33:56;2.22;;;1.70;;
68384;SDS011;55336;43.062;25.626;2022-09-09T01:39:00;1.58;;;1.42;;
68384;SDS011;55336;43.062;25.626;2022-09-09T01:41:26;2.10;;;1.50;;
68384;SDS011;55336;43.062;25.626;2022-09-09T01:43:53;1.90;;;1.80;;
68384;SDS011;55336;43.062;25.626;2022-09-09T01:46:21;1.67;;;1.58;;
68384;SDS011;55336;43.062;25.626;2022-09-09T01:48:48;2.17;;;1.80;;
68384;SDS011;55336;43.062;25.626;2022-09-09T01:51:18;1.52;;;1.42;;
68384;SDS011;55336;43.062;25.626;2022-09-09T01:53:44;2.45;;;2.00;;
68384;SDS011;55336;43.062;25.626;2022-09-09T01:58:56;3.85;;;1.92;;
68384;SDS011;55336;43.062;25.626;2022-09-09T02:04:41;1.23;;;1.13;;
68384;SDS011;55336;43.062;25.626;2022-09-09T02:07:30;1.88;;;1.77;;
68384;SDS011;55336;43.062;25.626;2022-09-09T02:10:20;1.80;;;1.70;;
68384;SDS011;55336;43.062;25.626;2022-09-09T02:12:53;2.05;;;1.95;;
68384;SDS011;55336;43.062;25.626;2022-09-09T02:15:32;1.70;;;1.45;;
68384;SDS011;55336;43.062;25.626;2022-09-09T02:18:00;1.40;;;1.30;;
68384;SDS011;55336;43.062;25.626;2022-09-09T02:20:33;1.27;;;1.17;;
68384;SDS011;55336;43.062;25.626;2022-09-09T02:23:01;1.88;;;1.67;;
68384;SDS011;55336;43.062;25.626;2022-09-09T02:25:29;2.85;;;1.35;;
68384;SDS011;55336;43.062;25.626;2022-09-09T02:27:55;2.58;;;2.08;;
68384;SDS011;55336;43.062;25.626;2022-09-09T02:30:25;1.58;;;1.48;;
68384;SDS011;55336;43.062;25.626;2022-09-09T02:32:54;1.25;;;1.13;;
68384;SDS011;55336;43.062;25.626;2022-09-09T02:35:23;1.08;;;1.08;;
68384;SDS011;55336;43.062;25.626;2022-09-09T02:37:52;1.50;;;1.40;;
68384;SDS011;55336;43.062;25.626;2022-09-09T02:40:21;2.00;;;1.33;;
68384;SDS011;55336;43.062;25.626;2022-09-09T02:42:48;1.77;;;1.52;;
68384;SDS011;55336;43.062;25.626;2022-09-09T02:45:23;2.35;;;1.67;;
68384;SDS011;55336;43.062;25.626;2022-09-09T02:50:35;1.95;;;1.75;;
68384;SDS011;55336;43.062;25.626;2022-09-09T02:53:11;1.60;;;1.20;;
68384;SDS011;55336;43.062;25.626;2022-09-09T02:55:59;2.28;;;2.00;;
68384;SDS011;55336;43.062;25.626;2022-09-09T02:58:28;2.33;;;1.92;;
68384;SDS011;55336;43.062;25.626;2022-09-09T03:03:23;2.03;;;1.80;;
68384;SDS011;55336;43.062;25.626;2022-09-09T03:05:49;1.20;;;1.10;;
68384;SDS011;55336;43.062;25.626;2022-09-09T03:08:15;1.38;;;1.27;;
68384;SDS011;55336;43.062;25.626;2022-09-09T03:10:42;1.55;;;1.45;;
68384;SDS011;55336;43.062;25.626;2022-09-09T03:15:34;1.67;;;1.40;;
68384;SDS011;55336;43.062;25.626;2022-09-09T03:18:00;3.67;;;1.70;;
68384;SDS011;55336;43.062;25.626;2022-09-09T03:20:26;1.17;;;1.13;;
68384;SDS011;55336;43.062;25.626;2022-09-09T03:22:53;2.42;;;1.90;;
68384;SDS011;55336;43.062;25.626;2022-09-09T03:25:20;1.23;;;1.20;;
68384;SDS011;55336;43.062;25.626;2022-09-09T03:27:49;2.95;;;2.00;;
68384;SDS011;55336;43.062;25.626;2022-09-09T03:30:20;1.15;;;1.10;;
68384;SDS011;55336;43.062;25.626;2022-09-09T03:32:50;1.80;;;1.60;;
68384;SDS011;55336;43.062;25.626;2022-09-09T03:37:42;3.58;;;2.17;;
68384;SDS011;55336;43.062;25.626;2022-09-09T03:40:08;2.10;;;1.85;;
68384;SDS011;55336;43.062;25.626;2022-09-09T03:42:37;1.50;;;1.40;;
68384;SDS011;55336;43.062;25.626;2022-09-09T03:45:04;1.70;;;1.60;;
68384;SDS011;55336;43.062;25.626;2022-09-09T03:47:31;2.80;;;1.85;;
68384;SDS011;55336;43.062;25.626;2022-09-09T03:49:58;1.80;;;1.70;;
68384;SDS011;55336;43.062;25.626;2022-09-09T03:52:24;2.03;;;1.85;;
68384;SDS011;55336;43.062;25.626;2022-09-09T03:54:51;2.42;;;2.17;;
68384;SDS011;55336;43.062;25.626;2022-09-09T03:57:18;1.67;;;1.55;;
68384;SDS011;55336;43.062;25.626;2022-09-09T03:59:44;2.58;;;1.95;;
68384;SDS011;55336;43.062;25.626;2022-09-09T04:02:10;2.20;;;1.75;;
68384;SDS011;55336;43.062;25.626;2022-09-09T04:04:36;1.75;;;1.27;;
68384;SDS011;55336;43.062;25.626;2022-09-09T04:07:02;1.20;;;1.10;;
68384;SDS011;55336;43.062;25.626;2022-09-09T04:09:28;3.60;;;1.48;;
68384;SDS011;55336;43.062;25.626;2022-09-09T04:11:54;3.90;;;2.65;;
68384;SDS011;55336;43.062;25.626;2022-09-09T04:14:20;3.78;;;1.63;;
68384;SDS011;55336;43.062;25.626;2022-09-09T04:16:47;1.23;;;1.10;;
68384;SDS011;55336;43.062;25.626;2022-09-09T04:19:12;2.10;;;1.90;;
68384;SDS011;55336;43.062;25.626;2022-09-09T04:21:40;2.03;;;1.70;;
68384;SDS011;55336;43.062;25.626;2022-09-09T04:24:07;1.70;;;1.40;;
68384;SDS011;55336;43.062;25.626;2022-09-09T04:26:33;2.75;;;2.05;;
68384;SDS011;55336;43.062;25.626;2022-09-09T04:29:01;2.83;;;2.33;;
68384;SDS011;55336;43.062;25.626;2022-09-09T04:31:28;2.88;;;2.55;;
68384;SDS011;55336;43.062;25.626;2022-09-09T04:33:54;5.82;;;3.97;;
68384;SDS011;55336;43.062;25.626;2022-09-09T04:36:20;4.07;;;3.55;;
68384;SDS011;55336;43.062;25.626;2022-09-09T04:38:47;5.55;;;3.35;;
68384;SDS011;55336;43.062;25.626;2022-09-09T04:41:14;3.38;;;2.58;;
68384;SDS011;55336;43.062;25.626;2022-09-09T04:43:40;4.38;;;2.47;;
68384;SDS011;55336;43.062;25.626;2022-09-09T04:46:06;4.03;;;2.80;;
68384;SDS011;55336;43.062;25.626;2022-09-09T04:48:32;3.30;;;2.33;;
68384;SDS011;55336;43.062;25.626;2022-09-09T04:50:58;4.05;;;2.40;;
68384;SDS011;55336;43.062;25.626;2022-09-09T04:53:26;2.45;;;2.25;;
68384;SDS011;55336;43.062;25.626;2022-09-09T04:58:26;1.77;;;1.67;;
68384;SDS011;55336;43.062;25.626;2022-09-09T05:00:52;1.10;;;1.10;;
68384;SDS011;55336;43.062;25.626;2022-09-09T05:03:17;2.95;;;2.35;;
68384;SDS011;55336;43.062;25.626;2022-09-09T05:05:44;2.50;;;2.28;;
68384;SDS011;55336;43.062;25.626;2022-09-09T05:08:10;5.00;;;2.72;;
68384;SDS011;55336;43.062;25.626;2022-09-09T05:13:02;2.70;;;1.67;;
68384;SDS011;55336;43.062;25.626;2022-09-09T05:15:29;3.95;;;2.47;;
68384;SDS011;55336;43.062;25.626;2022-09-09T05:20:25;2.80;;;2.35;;
68384;SDS011;55336;43.062;25.626;2022-09-09T05:22:55;2.63;;;1.95;;
68384;SDS011;55336;43.062;25.626;2022-09-09T05:25:22;2.97;;;2.22;;
68384;SDS011;55336;43.062;25.626;2022-09-09T05:27:51;3.22;;;2.38;;
68384;SDS011;55336;43.062;25.626;2022-09-09T05:30:18;2.47;;;2.08;;
68384;SDS011;55336;43.062;25.626;2022-09-09T05:32:45;3.22;;;2.08;;
68384;SDS011;55336;43.062;25.626;2022-09-09T05:35:12;2.88;;;2.08;;
68384;SDS011;55336;43.062;25.626;2022-09-09T05:40:06;5.32;;;2.53;;
68384;SDS011;55336;43.062;25.626;2022-09-09T05:42:33;2.67;;;2.30;;
68384;SDS011;55336;43.062;25.626;2022-09-09T05:44:59;2.90;;;2.35;;
68384;SDS011;55336;43.062;25.626;2022-09-09T05:47:25;2.55;;;2.35;;
68384;SDS011;55336;43.062;25.626;2022-09-09T05:49:53;3.38;;;3.08;;
68384;SDS011;55336;43.062;25.626;2022-09-09T05:52:20;6.13;;;5.05;;
68384;SDS011;55336;43.062;25.626;2022-09-09T05:57:12;4.15;;;3.47;;
68384;SDS011;55336;43.062;25.626;2022-09-09T05:59:38;5.65;;;3.25;;
68384;SDS011;55336;43.062;25.626;2022-09-09T06:02:04;4.70;;;3.47;;
68384;SDS011;55336;43.062;25.626;2022-09-09T06:04:30;2.45;;;1.98;;
68384;SDS011;55336;43.062;25.626;2022-09-09T06:06:56;2.60;;;2.00;;
68384;SDS011;55336;43.062;25.626;2022-09-09T06:11:47;1.77;;;1.67;;
68384;SDS011;55336;43.062;25.626;2022-09-09T06:16:39;3.50;;;1.65;;
68384;SDS011;55336;43.062;25.626;2022-09-09T06:19:08;1.63;;;1.50;;
68384;SDS011;55336;43.062;25.626;2022-09-09T06:24:03;2.85;;;1.75;;
68384;SDS011;55336;43.062;25.626;2022-09-09T06:26:33;1.42;;;1.27;;
68384;SDS011;55336;43.062;25.626;2022-09-09T06:29:00;3.55;;;1.55;;
68384;SDS011;55336;43.062;25.626;2022-09-09T06:31:29;1.52;;;1.38;;
68384;SDS011;55336;43.062;25.626;2022-09-09T06:33:56;1.38;;;1.23;;
68384;SDS011;55336;43.062;25.626;2022-09-09T06:36:30;2.22;;;2.03;;
68384;SDS011;55336;43.062;25.626;2022-09-09T06:38:57;3.95;;;1.83;;
68384;SDS011;55336;43.062;25.626;2022-09-09T06:41:24;1.23;;;1.13;;
68384;SDS011;55336;43.062;25.626;2022-09-09T06:43:52;1.33;;;1.23;;
68384;SDS011;55336;43.062;25.626;2022-09-09T06:48:45;1.73;;;1.47;;
68384;SDS011;55336;43.062;25.626;2022-09-09T06:51:17;4.20;;;2.10;;
68384;SDS011;55336;43.062;25.626;2022-09-09T06:56:22;3.67;;;2.45;;
68384;SDS011;55336;43.062;25.626;2022-09-09T06:58:49;1.75;;;1.60;;
68384;SDS011;55336;43.062;25.626;2022-09-09T07:01:17;2.15;;;1.83;;
68384;SDS011;55336;43.062;25.626;2022-09-09T07:03:46;3.13;;;2.03;;
68384;SDS011;55336;43.062;25.626;2022-09-09T07:06:14;3.10;;;1.90;;
68384;SDS011;55336;43.062;25.626;2022-09-09T07:08:42;3.55;;;2.83;;
68384;SDS011;55336;43.062;25.626;2022-09-09T07:11:09;2.55;;;2.28;;
68384;SDS011;55336;43.062;25.626;2022-09-09T07:13:38;1.67;;;1.58;;
68384;SDS011;55336;43.062;25.626;2022-09-09T07:18:34;3.08;;;2.13;;
68384;SDS011;55336;43.062;25.626;2022-09-09T07:21:00;4.30;;;2.90;;
68384;SDS011;55336;43.062;25.626;2022-09-09T07:23:28;1.98;;;1.77;;
68384;SDS011;55336;43.062;25.626;2022-09-09T07:25:55;3.30;;;1.95;;
68384;SDS011;55336;43.062;25.626;2022-09-09T07:28:22;2.25;;;1.77;;
68384;SDS011;55336;43.062;25.626;2022-09-09T07:30:57;2.42;;;1.40;;
68384;SDS011;55336;43.062;25.626;2022-09-09T07:33:25;1.40;;;1.30;;
68384;SDS011;55336;43.062;25.626;2022-09-09T07:35:51;2.42;;;1.77;;
68384;SDS011;55336;43.062;25.626;2022-09-09T07:38:18;1.40;;;1.27;;
68384;SDS011;55336;43.062;25.626;2022-09-09T07:40:45;1.80;;;1.60;;
68384;SDS011;55336;43.062;25.626;2022-09-09T07:43:11;1.98;;;1.77;;
68384;SDS011;55336;43.062;25.626;2022-09-09T07:45:37;1.50;;;1.40;;
68384;SDS011;55336;43.062;25.626;2022-09-09T07:48:05;4.93;;;1.80;;
68384;SDS011;55336;43.062;25.626;2022-09-09T07:50:31;2.50;;;1.63;;
68384;SDS011;55336;43.062;25.626;2022-09-09T07:52:57;1.50;;;1.35;;
68384;SDS011;55336;43.062;25.626;2022-09-09T07:55:23;1.85;;;1.60;;
68384;SDS011;55336;43.062;25.626;2022-09-09T07:57:50;3.38;;;2.47;;
68384;SDS011;55336;43.062;25.626;2022-09-09T08:00:16;3.08;;;1.70;;
68384;SDS011;55336;43.062;25.626;2022-09-09T08:02:44;3.63;;;1.48;;
68384;SDS011;55336;43.062;25.626;2022-09-09T08:05:11;2.20;;;1.65;;
68384;SDS011;55336;43.062;25.626;2022-09-09T08:07:38;4.15;;;2.35;;
68384;SDS011;55336;43.062;25.626;2022-09-09T08:10:04;2.85;;;1.50;;
68384;SDS011;55336;43.062;25.626;2022-09-09T08:12:31;5.60;;;1.70;;
68384;SDS011;55336;43.062;25.626;2022-09-09T08:14:57;1.70;;;1.58;;
68384;SDS011;55336;43.062;25.626;2022-09-09T08:17:23;5.68;;;1.92;;
68384;SDS011;55336;43.062;25.626;2022-09-09T08:19:49;3.20;;;1.88;;
68384;SDS011;55336;43.062;25.626;2022-09-09T08:22:15;2.28;;;2.05;;
68384;SDS011;55336;43.062;25.626;2022-09-09T08:24:41;1.70;;;1.60;;
68384;SDS011;55336;43.062;25.626;2022-09-09T08:27:07;3.25;;;2.35;;
68384;SDS011;55336;43.062;25.626;2022-09-09T08:29:34;2.42;;;2.03;;
68384;SDS011;55336;43.062;25.626;2022-09-09T08:32:02;1.75;;;1.65;;
68384;SDS011;55336;43.062;25.626;2022-09-09T08:34:29;2.28;;;1.90;;
68384;SDS011;55336;43.062;25.626;2022-09-09T08:36:56;1.92;;;1.80;;
68384;SDS011;55336;43.062;25.626;2022-09-09T08:39:22;1.92;;;1.80;;
68384;SDS011;55336;43.062;25.626;2022-09-09T08:52:04;2.17;;;1.88;;
68384;SDS011;55336;43.062;25.626;2022-09-09T08:54:40;2.22;;;2.03;;
68384;SDS011;55336;43.062;25.626;2022-09-09T08:57:08;4.55;;;2.65;;
68384;SDS011;55336;43.062;25.626;2022-09-09T08:59:45;1.77;;;1.67;;
68384;SDS011;55336;43.062;25.626;2022-09-09T09:05:19;2.70;;;1.63;;
68384;SDS011;55336;43.062;25.626;2022-09-09T09:13:43;5.13;;;2.03;;
68384;SDS011;55336;43.062;25.626;2022-09-09T09:19:02;1.30;;;1.20;;
68384;SDS011;55336;43.062;25.626;2022-09-09T09:24:20;2.95;;;1.98;;
68384;SDS011;55336;43.062;25.626;2022-09-09T09:26:51;1.70;;;1.60;;
68384;SDS011;55336;43.062;25.626;2022-09-09T09:29:18;1.90;;;1.67;;
68384;SDS011;55336;43.062;25.626;2022-09-09T09:31:56;4.20;;;2.15;;
68384;SDS011;55336;43.062;25.626;2022-09-09T09:34:24;2.20;;;1.70;;
68384;SDS011;55336;43.062;25.626;2022-09-09T09:36:56;3.85;;;1.85;;
68384;SDS011;55336;43.062;25.626;2022-09-09T09:39:24;1.98;;;1.75;;
68384;SDS011;55336;43.062;25.626;2022-09-09T09:41:52;1.75;;;1.65;;
68384;SDS011;55336;43.062;25.626;2022-09-09T09:44:21;3.25;;;2.20;;
68384;SDS011;55336;43.062;25.626;2022-09-09T09:46:51;2.90;;;1.80;;
68384;SDS011;55336;43.062;25.626;2022-09-09T09:49:18;5.13;;;1.85;;
68384;SDS011;55336;43.062;25.626;2022-09-09T09:51:44;2.92;;;1.63;;
68384;SDS011;55336;43.062;25.626;2022-09-09T09:56:48;2.03;;;1.80;;
68384;SDS011;55336;43.062;25.626;2022-09-09T10:02:36;2.15;;;1.80;;
68384;SDS011;55336;43.062;25.626;2022-09-09T10:07:29;1.67;;;1.52;;
68384;SDS011;55336;43.062;25.626;2022-09-09T10:09:56;2.00;;;1.55;;
68384;SDS011;55336;43.062;25.626;2022-09-09T10:12:25;4.82;;;2.10;;
68384;SDS011;55336;43.062;25.626;2022-09-09T10:17:58;1.35;;;1.25;;
68384;SDS011;55336;43.062;25.626;2022-09-09T10:20:46;1.67;;;1.58;;
68384;SDS011;55336;43.062;25.626;2022-09-09T10:23:41;1.75;;;1.30;;
68384;SDS011;55336;43.062;25.626;2022-09-09T10:29:08;3.47;;;2.20;;
68384;SDS011;55336;43.062;25.626;2022-09-09T10:40:04;2.55;;;1.92;;
68384;SDS011;55336;43.062;25.626;2022-09-09T10:42:37;3.15;;;1.92;;
68384;SDS011;55336;43.062;25.626;2022-09-09T10:45:17;1.02;;;0.90;;
68384;SDS011;55336;43.062;25.626;2022-09-09T10:56:04;2.42;;;1.70;;
68384;SDS011;55336;43.062;25.626;2022-09-09T11:04:00;2.17;;;1.92;;
68384;SDS011;55336;43.062;25.626;2022-09-09T11:06:39;1.70;;;1.60;;
68384;SDS011;55336;43.062;25.626;2022-09-09T11:09:14;4.65;;;2.33;;
68384;SDS011;55336;43.062;25.626;2022-09-09T11:11:50;1.58;;;1.48;;
68384;SDS011;55336;43.062;25.626;2022-09-09T11:14:32;1.13;;;1.05;;
68384;SDS011;55336;43.062;25.626;2022-09-09T11:17:15;2.00;;;1.80;;
68384;SDS011;55336;43.062;25.626;2022-09-09T11:19:45;1.83;;;1.55;;
68384;SDS011;55336;43.062;25.626;2022-09-09T11:25:05;2.38;;;1.92;;
68384;SDS011;55336;43.062;25.626;2022-09-09T11:27:36;4.13;;;1.60;;
68384;SDS011;55336;43.062;25.626;2022-09-09T11:30:26;9.38;;;2.10;;
68384;SDS011;55336;43.062;25.626;2022-09-09T11:38:26;2.50;;;2.25;;
68384;SDS011;55336;43.062;25.626;2022-09-09T11:40:55;2.60;;;1.83;;
68384;SDS011;55336;43.062;25.626;2022-09-09T11:45:55;2.30;;;1.83;;
68384;SDS011;55336;43.062;25.626;2022-09-09T11:51:02;2.15;;;1.95;;
68384;SDS011;55336;43.062;25.626;2022-09-09T11:53:30;2.38;;;2.10;;
68384;SDS011;55336;43.062;25.626;2022-09-09T11:56:08;2.97;;;2.25;;
68384;SDS011;55336;43.062;25.626;2022-09-09T11:58:42;2.33;;;2.13;;
68384;SDS011;55336;43.062;25.626;2022-09-09T12:06:32;2.40;;;1.77;;
68384;SDS011;55336;43.062;25.626;2022-09-09T12:09:12;2.10;;;1.70;;
68384;SDS011;55336;43.062;25.626;2022-09-09T12:12:06;1.92;;;1.70;;
68384;SDS011;55336;43.062;25.626;2022-09-09T12:17:17;2.17;;;1.95;;
68384;SDS011;55336;43.062;25.626;2022-09-09T12:19:59;1.85;;;1.60;;
68384;SDS011;55336;43.062;25.626;2022-09-09T12:23:15;3.70;;;1.90;;
68384;SDS011;55336;43.062;25.626;2022-09-09T12:33:47;3.95;;;1.98;;
68384;SDS011;55336;43.062;25.626;2022-09-09T12:36:20;2.30;;;1.83;;
68384;SDS011;55336;43.062;25.626;2022-09-09T12:38:49;1.88;;;1.60;;
68384;SDS011;55336;43.062;25.626;2022-09-09T12:43:49;1.90;;;1.40;;
68384;SDS011;55336;43.062;25.626;2022-09-09T12:46:20;1.75;;;1.48;;
68384;SDS011;55336;43.062;25.626;2022-09-09T12:49:28;2.08;;;1.83;;
68384;SDS011;55336;43.062;25.626;2022-09-09T12:52:02;3.10;;;2.10;;
68384;SDS011;55336;43.062;25.626;2022-09-09T12:54:34;1.70;;;1.60;;
68384;SDS011;55336;43.062;25.626;2022-09-09T12:57:02;2.08;;;1.67;;
68384;SDS011;55336;43.062;25.626;2022-09-09T12:59:38;4.38;;;2.60;;
68384;SDS011;55336;43.062;25.626;2022-09-09T13:02:23;2.13;;;1.85;;
68384;SDS011;55336;43.062;25.626;2022-09-09T13:04:51;1.90;;;1.70;;
68384;SDS011;55336;43.062;25.626;2022-09-09T13:07:19;2.58;;;1.90;;
68384;SDS011;55336;43.062;25.626;2022-09-09T13:09:47;1.95;;;1.67;;
68384;SDS011;55336;43.062;25.626;2022-09-09T13:12:20;2.65;;;1.98;;
68384;SDS011;55336;43.062;25.626;2022-09-09T13:14:53;2.33;;;1.98;;
68384;SDS011;55336;43.062;25.626;2022-09-09T13:17:22;2.55;;;1.90;;
68384;SDS011;55336;43.062;25.626;2022-09-09T13:19:50;3.38;;;2.00;;
68384;SDS011;55336;43.062;25.626;2022-09-09T13:22:31;1.80;;;1.67;;
68384;SDS011;55336;43.062;25.626;2022-09-09T13:25:05;3.10;;;1.92;;
68384;SDS011;55336;43.062;25.626;2022-09-09T13:27:56;2.83;;;2.00;;
68384;SDS011;55336;43.062;25.626;2022-09-09T13:30:35;2.08;;;1.50;;
68384;SDS011;55336;43.062;25.626;2022-09-09T13:35:48;2.83;;;2.00;;
68384;SDS011;55336;43.062;25.626;2022-09-09T13:38:22;2.97;;;1.90;;
68384;SDS011;55336;43.062;25.626;2022-09-09T13:40:57;4.53;;;2.30;;
68384;SDS011;55336;43.062;25.626;2022-09-09T13:43:30;3.10;;;2.33;;
68384;SDS011;55336;43.062;25.626;2022-09-09T13:46:23;2.10;;;1.90;;
68384;SDS011;55336;43.062;25.626;2022-09-09T13:49:00;3.28;;;1.80;;
68384;SDS011;55336;43.062;25.626;2022-09-09T13:54:12;5.60;;;1.65;;
68384;SDS011;55336;43.062;25.626;2022-09-09T13:56:40;2.03;;;1.92;;
68384;SDS011;55336;43.062;25.626;2022-09-09T13:59:14;2.40;;;2.15;;
68384;SDS011;55336;43.062;25.626;2022-09-09T14:01:44;2.50;;;1.88;;
68384;SDS011;55336;43.062;25.626;2022-09-09T14:04:11;1.58;;;1.48;;
68384;SDS011;55336;43.062;25.626;2022-09-09T14:06:37;2.70;;;1.83;;
68384;SDS011;55336;43.062;25.626;2022-09-09T14:09:08;2.20;;;1.90;;
68384;SDS011;55336;43.062;25.626;2022-09-09T14:11:36;2.38;;;1.90;;
68384;SDS011;55336;43.062;25.626;2022-09-09T14:14:02;1.98;;;1.85;;
68384;SDS011;55336;43.062;25.626;2022-09-09T14:16:28;2.55;;;1.70;;
68384;SDS011;55336;43.062;25.626;2022-09-09T14:18:55;2.33;;;1.90;;
68384;SDS011;55336;43.062;25.626;2022-09-09T14:21:24;1.60;;;1.45;;
68384;SDS011;55336;43.062;25.626;2022-09-09T14:23:51;2.80;;;1.92;;
68384;SDS011;55336;43.062;25.626;2022-09-09T14:26:20;2.47;;;2.00;;
68384;SDS011;55336;43.062;25.626;2022-09-09T14:28:46;2.05;;;1.70;;
68384;SDS011;55336;43.062;25.626;2022-09-09T14:31:13;2.00;;;1.80;;
68384;SDS011;55336;43.062;25.626;2022-09-09T14:33:39;2.45;;;1.92;;
68384;SDS011;55336;43.062;25.626;2022-09-09T14:36:06;2.47;;;2.28;;
68384;SDS011;55336;43.062;25.626;2022-09-09T14:38:32;2.25;;;2.05;;
68384;SDS011;55336;43.062;25.626;2022-09-09T14:41:00;2.00;;;1.55;;
68384;SDS011;55336;43.062;25.626;2022-09-09T14:43:28;3.58;;;2.38;;
68384;SDS011;55336;43.062;25.626;2022-09-09T14:45:58;3.85;;;2.33;;
68384;SDS011;55336;43.062;25.626;2022-09-09T14:48:33;2.38;;;2.17;;
68384;SDS011;55336;43.062;25.626;2022-09-09T14:51:07;3.40;;;2.20;;
68384;SDS011;55336;43.062;25.626;2022-09-09T14:53:34;4.07;;;2.78;;
68384;SDS011;55336;43.062;25.626;2022-09-09T14:56:06;1.98;;;1.88;;
68384;SDS011;55336;43.062;25.626;2022-09-09T14:58:34;7.45;;;2.08;;
68384;SDS011;55336;43.062;25.626;2022-09-09T15:01:13;2.20;;;1.98;;
68384;SDS011;55336;43.062;25.626;2022-09-09T15:03:41;4.00;;;2.30;;
68384;SDS011;55336;43.062;25.626;2022-09-09T15:06:13;2.47;;;2.28;;
68384;SDS011;55336;43.062;25.626;2022-09-09T15:08:41;3.42;;;2.42;;
68384;SDS011;55336;43.062;25.626;2022-09-09T15:11:08;10.13;;;2.33;;
68384;SDS011;55336;43.062;25.626;2022-09-09T15:13:36;3.10;;;2.20;;
68384;SDS011;55336;43.062;25.626;2022-09-09T15:16:06;3.67;;;2.75;;
68384;SDS011;55336;43.062;25.626;2022-09-09T15:18:33;3.35;;;2.35;;
68384;SDS011;55336;43.062;25.626;2022-09-09T15:21:04;4.05;;;2.80;;
68384;SDS011;55336;43.062;25.626;2022-09-09T15:23:33;3.20;;;2.08;;
68384;SDS011;55336;43.062;25.626;2022-09-09T15:26:00;2.90;;;2.63;;
68384;SDS011;55336;43.062;25.626;2022-09-09T15:28:27;3.97;;;2.30;;
68384;SDS011;55336;43.062;25.626;2022-09-09T15:30:53;3.25;;;2.25;;
68384;SDS011;55336;43.062;25.626;2022-09-09T15:33:20;4.43;;;2.70;;
68384;SDS011;55336;43.062;25.626;2022-09-09T15:35:46;2.63;;;2.15;;
68384;SDS011;55336;43.062;25.626;2022-09-09T15:38:13;2.08;;;1.98;;
68384;SDS011;55336;43.062;25.626;2022-09-09T15:40:40;3.30;;;2.50;;
68384;SDS011;55336;43.062;25.626;2022-09-09T15:43:06;3.20;;;2.42;;
68384;SDS011;55336;43.062;25.626;2022-09-09T15:45:34;2.58;;;1.90;;
68384;SDS011;55336;43.062;25.626;2022-09-09T15:48:01;2.58;;;2.22;;
68384;SDS011;55336;43.062;25.626;2022-09-09T15:50:28;2.40;;;2.10;;
68384;SDS011;55336;43.062;25.626;2022-09-09T15:52:57;3.00;;;2.47;;
68384;SDS011;55336;43.062;25.626;2022-09-09T15:55:24;2.75;;;2.50;;
68384;SDS011;55336;43.062;25.626;2022-09-09T15:57:50;6.28;;;3.08;;
68384;SDS011;55336;43.062;25.626;2022-09-09T16:00:18;9.07;;;3.58;;
68384;SDS011;55336;43.062;25.626;2022-09-09T16:02:46;5.03;;;3.05;;
68384;SDS011;55336;43.062;25.626;2022-09-09T16:05:12;4.00;;;2.55;;
68384;SDS011;55336;43.062;25.626;2022-09-09T16:07:38;4.18;;;2.75;;
68384;SDS011;55336;43.062;25.626;2022-09-09T16:10:05;3.25;;;2.63;;
68384;SDS011;55336;43.062;25.626;2022-09-09T16:12:32;2.63;;;2.38;;
68384;SDS011;55336;43.062;25.626;2022-09-09T16:14:58;2.97;;;2.45;;
68384;SDS011;55336;43.062;25.626;2022-09-09T16:17:24;3.92;;;3.30;;
68384;SDS011;55336;43.062;25.626;2022-09-09T16:24:43;7.65;;;3.50;;
68384;SDS011;55336;43.062;25.626;2022-09-09T16:27:10;3.25;;;2.90;;
68384;SDS011;55336;43.062;25.626;2022-09-09T16:29:36;3.95;;;2.88;;
68384;SDS011;55336;43.062;25.626;2022-09-09T16:34:28;9.75;;;2.90;;
68384;SDS011;55336;43.062;25.626;2022-09-09T16:39:19;6.80;;;3.13;;
68384;SDS011;55336;43.062;25.626;2022-09-09T16:41:46;3.03;;;2.65;;
68384;SDS011;55336;43.062;25.626;2022-09-09T16:44:14;6.88;;;2.83;;
68384;SDS011;55336;43.062;25.626;2022-09-09T16:46:42;4.30;;;3.13;;
68384;SDS011;55336;43.062;25.626;2022-09-09T16:49:09;6.00;;;3.15;;
68384;SDS011;55336;43.062;25.626;2022-09-09T16:51:42;4.38;;;3.03;;
68384;SDS011;55336;43.062;25.626;2022-09-09T16:54:12;3.83;;;3.05;;
68384;SDS011;55336;43.062;25.626;2022-09-09T16:56:40;3.63;;;2.53;;
68384;SDS011;55336;43.062;25.626;2022-09-09T16:59:11;3.28;;;2.40;;
68384;SDS011;55336;43.062;25.626;2022-09-09T17:01:42;4.65;;;2.42;;
68384;SDS011;55336;43.062;25.626;2022-09-09T17:04:10;3.58;;;2.85;;
68384;SDS011;55336;43.062;25.626;2022-09-09T17:06:38;7.32;;;3.10;;
68384;SDS011;55336;43.062;25.626;2022-09-09T17:09:09;4.95;;;3.50;;
68384;SDS011;55336;43.062;25.626;2022-09-09T17:11:39;5.60;;;2.95;;
68384;SDS011;55336;43.062;25.626;2022-09-09T17:14:07;2.75;;;2.53;;
68384;SDS011;55336;43.062;25.626;2022-09-09T17:16:35;3.75;;;2.83;;
68384;SDS011;55336;43.062;25.626;2022-09-09T17:19:04;3.15;;;2.63;;
68384;SDS011;55336;43.062;25.626;2022-09-09T17:21:31;5.05;;;3.38;;
68384;SDS011;55336;43.062;25.626;2022-09-09T17:23:57;4.68;;;3.33;;
68384;SDS011;55336;43.062;25.626;2022-09-09T17:26:25;5.35;;;3.17;;
68384;SDS011;55336;43.062;25.626;2022-09-09T17:28:54;3.85;;;2.78;;
68384;SDS011;55336;43.062;25.626;2022-09-09T17:31:23;5.45;;;3.55;;
68384;SDS011;55336;43.062;25.626;2022-09-09T17:33:51;3.47;;;3.03;;
68384;SDS011;55336;43.062;25.626;2022-09-09T17:36:24;3.35;;;3.05;;
68384;SDS011;55336;43.062;25.626;2022-09-09T17:38:51;5.40;;;3.40;;
68384;SDS011;55336;43.062;25.626;2022-09-09T17:41:21;3.88;;;3.03;;
68384;SDS011;55336;43.062;25.626;2022-09-09T17:43:49;2.75;;;2.55;;
68384;SDS011;55336;43.062;25.626;2022-09-09T17:46:20;5.45;;;3.97;;
68384;SDS011;55336;43.062;25.626;2022-09-09T17:48:49;3.83;;;3.38;;
68384;SDS011;55336;43.062;25.626;2022-09-09T17:51:20;3.78;;;3.20;;
68384;SDS011;55336;43.062;25.626;2022-09-09T17:53:52;4.47;;;3.08;;
68384;SDS011;55336;43.062;25.626;2022-09-09T17:56:20;2.72;;;2.53;;
68384;SDS011;55336;43.062;25.626;2022-09-09T17:58:50;4.00;;;2.85;;
68384;SDS011;55336;43.062;25.626;2022-09-09T18:03:45;3.17;;;2.75;;